Time;durP1;ratioP1;P1;durP2;ratioP2;P2;SDS_P1;SDS_P2;PMS_P1;PMS_P2;Temp;Humidity;BMP_temperature;BMP_pressure;BME280_temperature;BME280_humidity;BME280_pressure;Samples;Min_cycle;Max_cycle;Signal;HPM_P1;HPM_P2
2024/02/20 00:00:43;;;;;;;5.50;2.77;;;8.90;98.00;;;;;;5015049;28;20455;-67
2024/02/20 00:03:11;;;;;;;6.00;2.97;;;9.00;98.00;;;;;;5032215;28;20464;-68
2024/02/20 00:05:38;;;;;;;5.43;3.30;;;9.00;98.00;;;;;;5032110;28;20823;-67
2024/02/20 00:08:07;;;;;;;5.70;2.80;;;9.00;98.00;;;;;;5031775;28;20447;-67
2024/02/20 00:10:34;;;;;;;5.77;3.00;;;9.00;98.00;;;;;;5032353;28;20836;-67
2024/02/20 00:13:02;;;;;;;6.23;3.00;;;9.00;98.00;;;;;;5031904;28;20455;-67
2024/02/20 00:15:29;;;;;;;5.83;3.33;;;8.90;98.00;;;;;;5031649;28;20490;-67
2024/02/20 00:17:56;;;;;;;6.07;2.60;;;8.90;98.00;;;;;;5031633;28;20487;-67
2024/02/20 00:20:24;;;;;;;5.00;2.83;;;8.80;98.00;;;;;;5031892;28;20458;-67
2024/02/20 00:22:51;;;;;;;4.43;2.40;;;8.90;98.00;;;;;;5014111;28;20483;-69
2024/02/20 00:25:19;;;;;;;5.60;2.80;;;8.90;98.00;;;;;;5031433;28;20462;-68
2024/02/20 00:27:46;;;;;;;4.60;2.33;;;8.80;98.00;;;;;;5031425;28;20462;-67
2024/02/20 00:30:14;;;;;;;6.53;2.80;;;8.80;98.00;;;;;;5031466;28;20933;-67
2024/02/20 00:32:42;;;;;;;4.43;2.57;;;8.80;98.00;;;;;;5031526;28;20458;-68
2024/02/20 00:35:10;;;;;;;4.30;2.50;;;8.90;98.00;;;;;;5014235;28;20823;-68
2024/02/20 00:37:37;;;;;;;4.47;2.80;;;8.90;98.00;;;;;;5014053;28;20458;-67
2024/02/20 00:40:08;;;;;;;7.70;3.10;;;8.90;98.00;;;;;;5031498;28;20490;-68
2024/02/20 00:42:36;;;;;;;5.23;2.90;;;8.90;98.00;;;;;;5030798;28;20491;-67
2024/02/20 00:45:04;;;;;;;5.60;2.97;;;8.90;98.00;;;;;;5031554;28;20482;-68
2024/02/20 00:47:32;;;;;;;5.87;3.07;;;9.00;98.00;;;;;;5031432;28;20976;-68
2024/02/20 00:49:59;;;;;;;5.93;3.03;;;9.00;98.00;;;;;;4997582;28;20462;-67
2024/02/20 00:52:26;;;;;;;9.90;3.40;;;8.90;98.00;;;;;;5014063;28;20450;-67
2024/02/20 00:54:53;;;;;;;7.07;2.73;;;8.80;98.00;;;;;;5031327;28;20847;-68
2024/02/20 00:57:21;;;;;;;6.27;3.17;;;8.90;98.00;;;;;;5035366;28;20457;-69
2024/02/20 00:59:49;;;;;;;6.23;3.17;;;9.00;98.00;;;;;;5035166;28;20486;-68
2024/02/20 01:02:17;;;;;;;6.27;3.13;;;9.00;98.00;;;;;;5035202;28;20511;-66
2024/02/20 01:04:44;;;;;;;6.70;3.10;;;9.00;98.00;;;;;;5017681;28;20991;-69
2024/02/20 01:07:12;;;;;;;4.60;2.90;;;9.00;98.00;;;;;;5034987;28;20474;-68
2024/02/20 01:09:39;;;;;;;6.23;3.17;;;8.90;98.00;;;;;;5035116;28;20584;-68
2024/02/20 01:12:07;;;;;;;5.67;2.77;;;9.00;98.00;;;;;;5035018;28;20462;-68
2024/02/20 01:14:34;;;;;;;7.20;3.10;;;9.00;98.00;;;;;;5016780;28;20461;-67
2024/02/20 01:17:03;;;;;;;5.77;3.20;;;9.10;98.00;;;;;;5034900;28;20857;-68
2024/02/20 01:19:30;;;;;;;5.20;2.90;;;8.90;98.00;;;;;;5034956;28;20466;-68
2024/02/20 01:21:58;;;;;;;8.47;3.30;;;8.90;98.00;;;;;;5034970;28;20461;-68
2024/02/20 01:24:25;;;;;;;8.47;3.37;;;8.90;98.00;;;;;;5034682;28;20454;-69
2024/02/20 01:26:52;;;;;;;7.40;3.60;;;8.90;98.00;;;;;;5034568;28;20474;-69
2024/02/20 01:29:21;;;;;;;7.03;3.43;;;9.10;98.00;;;;;;5034680;28;20461;-67
2024/02/20 01:31:48;;;;;;;6.43;3.30;;;9.00;98.00;;;;;;5034629;28;20457;-67
2024/02/20 01:34:18;;;;;;;8.70;3.93;;;9.00;98.00;;;;;;5034718;28;20457;-67
2024/02/20 01:36:45;;;;;;;7.20;3.30;;;8.90;98.00;;;;;;5016940;28;20575;-67
2024/02/20 01:39:13;;;;;;;7.87;3.87;;;8.90;98.00;;;;;;5034451;28;20529;-68
2024/02/20 01:41:40;;;;;;;7.13;3.83;;;9.00;98.00;;;;;;5034607;28;20454;-67
2024/02/20 01:44:07;;;;;;;7.70;3.80;;;9.00;98.00;;;;;;5034657;28;20525;-67
2024/02/20 01:46:34;;;;;;;8.60;3.90;;;9.10;98.00;;;;;;5034453;28;20850;-68
2024/02/20 01:49:02;;;;;;;9.37;3.87;;;8.90;98.00;;;;;;5034378;28;20473;-67
2024/02/20 01:51:33;;;;;;;7.60;3.80;;;9.00;98.00;;;;;;5034380;28;20555;-67
2024/02/20 01:54:01;;;;;;;9.33;4.00;;;9.00;98.00;;;;;;5034571;28;20547;-67
2024/02/20 01:56:29;;;;;;;10.80;4.07;;;8.90;98.00;;;;;;5034261;28;20486;-68
2024/02/20 01:58:56;;;;;;;9.23;3.70;;;8.90;98.00;;;;;;5033915;28;21241;-67
2024/02/20 02:01:25;;;;;;;7.33;3.60;;;8.90;98.00;;;;;;5034489;28;20817;-67
2024/02/20 02:03:52;;;;;;;6.80;3.33;;;8.90;98.00;;;;;;5033943;28;20447;-67
2024/02/20 02:06:28;;;;;;;7.60;3.60;;;8.90;98.00;;;;;;5033456;28;20486;-67
2024/02/20 02:08:58;;;;;;;7.20;3.77;;;8.90;98.00;;;;;;5033910;28;20490;-68
2024/02/20 02:11:26;;;;;;;6.90;3.50;;;8.90;98.00;;;;;;5034293;28;20458;-68
2024/02/20 02:13:53;;;;;;;9.70;3.23;;;8.80;98.00;;;;;;5033795;28;20454;-67
2024/02/20 02:16:20;;;;;;;7.30;3.50;;;8.80;98.00;;;;;;5033609;28;20482;-68
2024/02/20 02:18:48;;;;;;;8.80;3.27;;;8.80;98.00;;;;;;5033712;28;20470;-68
2024/02/20 02:21:15;;;;;;;6.70;3.67;;;8.70;98.00;;;;;;5033589;28;20509;-69
2024/02/20 02:23:42;;;;;;;8.33;3.60;;;8.60;98.00;;;;;;5033447;28;20453;-68
2024/02/20 02:26:12;;;;;;;10.80;3.70;;;8.70;98.00;;;;;;5015636;28;20462;-67
2024/02/20 02:28:39;;;;;;;5.50;3.30;;;8.60;98.00;;;;;;5033289;28;20496;-69
2024/02/20 02:31:06;;;;;;;7.27;3.93;;;8.60;98.00;;;;;;5033391;28;20455;-68
2024/02/20 02:33:33;;;;;;;10.30;4.10;;;8.60;98.00;;;;;;5033429;28;20485;-67
2024/02/20 02:36:01;;;;;;;9.20;3.70;;;8.50;98.00;;;;;;5015637;28;20475;-68
2024/02/20 02:38:28;;;;;;;6.13;3.10;;;8.40;98.00;;;;;;5033300;28;20450;-68
2024/02/20 02:40:55;;;;;;;5.53;2.87;;;8.40;98.00;;;;;;5033289;28;20456;-67
2024/02/20 02:43:24;;;;;;;6.77;3.10;;;8.50;98.00;;;;;;5033428;28;20454;-67
2024/02/20 02:45:51;;;;;;;4.80;2.90;;;8.40;98.00;;;;;;5033355;28;20451;-67
2024/02/20 02:48:18;;;;;;;10.50;3.70;;;8.40;98.00;;;;;;5015490;28;20458;-67
2024/02/20 02:50:45;;;;;;;8.67;3.23;;;8.50;98.00;;;;;;5033089;28;20486;-67
2024/02/20 02:53:12;;;;;;;8.83;3.20;;;8.60;98.00;;;;;;5015676;28;20948;-69
2024/02/20 02:55:43;;;;;;;5.77;2.90;;;8.70;98.00;;;;;;5032988;28;20479;-67
2024/02/20 02:58:13;;;;;;;7.10;3.30;;;8.70;98.00;;;;;;5032965;28;20463;-67
2024/02/20 03:00:42;;;;;;;6.90;3.50;;;8.70;98.00;;;;;;5032833;28;20827;-67
2024/02/20 03:03:09;;;;;;;7.40;3.70;;;8.70;98.00;;;;;;5015383;28;20463;-67
2024/02/20 03:05:37;;;;;;;5.40;3.00;;;8.70;98.00;;;;;;5032889;28;20457;-67
2024/02/20 03:08:05;;;;;;;7.37;3.87;;;8.70;98.00;;;;;;5032664;28;20971;-67
2024/02/20 03:10:32;;;;;;;7.43;3.87;;;8.70;98.00;;;;;;5032789;28;20460;-67
2024/02/20 03:12:59;;;;;;;5.33;3.00;;;8.60;98.00;;;;;;5032640;28;20450;-67
2024/02/20 03:15:26;;;;;;;7.40;3.50;;;8.50;98.00;;;;;;5015227;28;20461;-69
2024/02/20 03:17:55;;;;;;;7.33;3.43;;;8.50;98.00;;;;;;5032189;28;20902;-68
2024/02/20 03:20:22;;;;;;;12.77;3.37;;;8.40;98.00;;;;;;5032530;28;20457;-67
2024/02/20 03:22:49;;;;;;;8.70;3.10;;;8.50;98.00;;;;;;5033002;28;20811;-67
2024/02/20 03:25:16;;;;;;;7.03;3.23;;;8.50;98.00;;;;;;5032741;28;20458;-67
2024/02/20 03:27:44;;;;;;;6.50;3.00;;;8.50;98.00;;;;;;5032642;28;20447;-67
2024/02/20 03:30:12;;;;;;;5.40;2.70;;;8.50;98.00;;;;;;5032584;28;20481;-67
2024/02/20 03:32:40;;;;;;;5.90;3.07;;;8.50;98.00;;;;;;5032692;28;20464;-67
2024/02/20 03:35:20;;;;;;;6.27;2.80;;;8.60;98.00;;;;;;5014970;28;20462;-67
2024/02/20 03:37:48;;;;;;;7.37;2.83;;;8.70;98.00;;;;;;5032429;28;20490;-67
2024/02/20 03:40:16;;;;;;;6.90;2.90;;;8.60;98.00;;;;;;5031998;28;20530;-68
2024/02/20 03:42:43;;;;;;;6.10;2.80;;;8.50;98.00;;;;;;5032662;28;20461;-66
2024/02/20 03:45:10;;;;;;;8.43;2.73;;;8.50;98.00;;;;;;5032260;28;20497;-67
2024/02/20 03:47:37;;;;;;;4.87;2.87;;;8.60;98.00;;;;;;5032424;28;20462;-68
2024/02/20 03:50:05;;;;;;;4.37;2.60;;;8.60;98.00;;;;;;5031924;28;20459;-68
2024/02/20 03:52:34;;;;;;;6.90;2.80;;;8.60;98.00;;;;;;5031910;28;20470;-67
2024/02/20 03:55:01;;;;;;;6.47;2.70;;;8.60;98.00;;;;;;5031874;28;20453;-66
2024/02/20 03:57:28;;;;;;;4.70;2.40;;;8.60;98.00;;;;;;5014653;28;20512;-67
2024/02/20 03:59:56;;;;;;;5.57;2.20;;;8.50;98.00;;;;;;5014337;28;20454;-68
2024/02/20 04:02:23;;;;;;;4.30;2.00;;;8.50;98.00;;;;;;5031686;28;20449;-67
2024/02/20 04:04:50;;;;;;;11.47;3.17;;;8.40;98.00;;;;;;5031826;28;20461;-67
2024/02/20 04:07:17;;;;;;;7.57;2.70;;;8.30;98.00;;;;;;5031913;28;20617;-67
2024/02/20 04:09:46;;;;;;;6.23;2.33;;;8.30;98.00;;;;;;5031785;28;20468;-66
2024/02/20 04:12:13;;;;;;;6.30;2.20;;;8.30;98.00;;;;;;5031657;28;20461;-67
2024/02/20 04:14:40;;;;;;;5.57;1.90;;;8.40;98.00;;;;;;5031708;28;20449;-68
2024/02/20 04:17:07;;;;;;;5.30;2.37;;;8.40;98.00;;;;;;5030895;28;20910;-68
2024/02/20 04:19:35;;;;;;;5.03;2.33;;;8.40;98.00;;;;;;5031334;28;20458;-67
2024/02/20 04:22:02;;;;;;;5.80;2.17;;;8.30;98.00;;;;;;5031714;28;20466;-67
2024/02/20 04:24:29;;;;;;;4.93;2.27;;;8.30;98.00;;;;;;5031503;28;20476;-67
2024/02/20 04:26:58;;;;;;;3.97;2.07;;;8.30;98.00;;;;;;5031631;28;20461;-67
2024/02/20 04:29:25;;;;;;;7.97;2.53;;;8.30;98.00;;;;;;5030914;28;20457;-67
2024/02/20 04:31:52;;;;;;;5.97;2.60;;;8.20;98.00;;;;;;5035815;28;20462;-68
2024/02/20 04:34:20;;;;;;;6.90;2.63;;;8.20;98.00;;;;;;5035803;28;20860;-67
2024/02/20 04:36:47;;;;;;;4.30;2.63;;;8.30;98.00;;;;;;5001739;28;20885;-66
2024/02/20 04:39:14;;;;;;;4.63;2.43;;;8.20;98.00;;;;;;5035490;28;20457;-68
2024/02/20 04:41:41;;;;;;;5.20;2.50;;;8.10;98.00;;;;;;5035827;28;20969;-67
2024/02/20 04:44:10;;;;;;;8.40;2.87;;;8.10;98.00;;;;;;5035664;28;20461;-67
2024/02/20 04:46:37;;;;;;;4.97;2.23;;;8.10;98.00;;;;;;5017940;28;20453;-68
2024/02/20 04:49:04;;;;;;;5.87;2.20;;;8.00;98.00;;;;;;5035329;28;20823;-67
2024/02/20 04:51:32;;;;;;;7.93;2.30;;;8.10;98.00;;;;;;5034729;28;20457;-68
2024/02/20 04:54:00;;;;;;;7.43;2.73;;;8.10;98.00;;;;;;5018053;28;20811;-67
2024/02/20 04:56:27;;;;;;;8.90;2.50;;;8.20;98.00;;;;;;5035429;28;20786;-67
2024/02/20 04:58:57;;;;;;;5.87;2.73;;;8.30;98.00;;;;;;5034645;28;20454;-67
2024/02/20 05:01:25;;;;;;;5.40;2.47;;;8.30;98.00;;;;;;5033933;28;20860;-67
2024/02/20 05:03:52;;;;;;;7.07;2.70;;;8.20;98.00;;;;;;5034547;28;20454;-68
2024/02/20 05:06:20;;;;;;;5.40;2.30;;;8.10;98.00;;;;;;5034916;28;20462;-67
2024/02/20 05:08:47;;;;;;;6.43;2.80;;;8.20;98.00;;;;;;5017547;28;20804;-67
2024/02/20 05:11:14;;;;;;;7.33;2.50;;;8.10;98.00;;;;;;5035072;28;20458;-68
2024/02/20 05:13:41;;;;;;;8.83;2.53;;;8.10;98.00;;;;;;5035002;28;20450;-67
2024/02/20 05:16:08;;;;;;;7.20;2.70;;;8.10;98.00;;;;;;5017204;28;20447;-67
2024/02/20 05:18:37;;;;;;;6.37;3.00;;;7.90;98.00;;;;;;5034813;28;20948;-67
2024/02/20 05:21:06;;;;;;;5.50;2.50;;;7.90;98.00;;;;;;5035003;28;20488;-67
2024/02/20 05:23:33;;;;;;;7.13;2.83;;;7.90;98.00;;;;;;5034724;28;20523;-66
2024/02/20 05:26:00;;;;;;;4.43;2.30;;;7.80;98.00;;;;;;5034781;28;20457;-66
2024/02/20 05:28:27;;;;;;;5.50;2.63;;;7.90;98.00;;;;;;5035012;28;20458;-67
2024/02/20 05:30:55;;;;;;;3.57;2.40;;;7.90;98.00;;;;;;5034976;28;20489;-66
2024/02/20 05:33:23;;;;;;;5.80;2.77;;;7.80;98.00;;;;;;5034552;28;20480;-66
2024/02/20 05:35:51;;;;;;;5.83;2.57;;;7.70;98.00;;;;;;5034349;28;20464;-67
2024/02/20 05:38:19;;;;;;;5.87;2.70;;;7.70;98.00;;;;;;5034605;28;20493;-66
2024/02/20 05:40:48;;;;;;;9.37;2.30;;;7.80;98.00;;;;;;5034398;28;20460;-67
2024/02/20 05:43:16;;;;;;;7.97;2.90;;;7.80;98.00;;;;;;5034145;28;20779;-67
2024/02/20 05:45:44;;;;;;;5.97;2.50;;;7.80;98.00;;;;;;5016932;28;20460;-66
2024/02/20 05:48:12;;;;;;;11.20;2.57;;;7.80;98.00;;;;;;5034462;28;20461;-67
2024/02/20 05:50:40;;;;;;;6.10;2.50;;;7.80;98.00;;;;;;5034424;28;20932;-67
2024/02/20 05:53:09;;;;;;;4.50;2.30;;;7.70;98.00;;;;;;5034022;28;20509;-68
2024/02/20 05:55:36;;;;;;;6.50;2.60;;;7.80;98.00;;;;;;5034157;28;20511;-67
2024/02/20 05:58:03;;;;;;;7.03;2.40;;;7.90;98.00;;;;;;5016483;28;20489;-66
2024/02/20 06:00:31;;;;;;;8.33;2.70;;;8.00;98.00;;;;;;5034373;28;20466;-67
2024/02/20 06:02:58;;;;;;;6.17;2.80;;;7.90;98.00;;;;;;5034132;28;20449;-67
2024/02/20 06:05:25;;;;;;;4.13;2.13;;;7.90;98.00;;;;;;5034031;28;20469;-66
2024/02/20 06:07:52;;;;;;;4.97;2.13;;;7.80;98.00;;;;;;5034496;28;20470;-67
2024/02/20 06:10:23;;;;;;;11.53;2.70;;;7.60;98.00;;;;;;5033893;28;20454;-67
2024/02/20 06:12:50;;;;;;;6.23;2.50;;;7.70;98.00;;;;;;5016313;28;20467;-66
2024/02/20 06:15:17;;;;;;;5.53;2.60;;;7.70;98.00;;;;;;5033842;28;20462;-67
2024/02/20 06:17:47;;;;;;;6.57;2.57;;;7.60;98.00;;;;;;5033739;28;20488;-67
2024/02/20 06:20:14;;;;;;;6.87;2.27;;;7.70;98.00;;;;;;5033732;28;21014;-67
2024/02/20 06:22:41;;;;;;;4.80;2.47;;;7.70;98.00;;;;;;5033291;28;20462;-66
2024/02/20 06:25:09;;;;;;;11.13;2.60;;;7.80;98.00;;;;;;5033704;28;20461;-67
2024/02/20 06:27:38;;;;;;;12.30;3.00;;;7.70;98.00;;;;;;5033786;28;20488;-67
2024/02/20 06:30:11;;;;;;;5.17;2.53;;;7.70;98.00;;;;;;5033546;28;20484;-67
2024/02/20 06:32:39;;;;;;;2.63;1.93;;;7.60;98.00;;;;;;5033742;28;20810;-68
2024/02/20 06:35:08;;;;;;;5.27;2.13;;;7.50;98.00;;;;;;5033237;28;20453;-67
2024/02/20 06:37:35;;;;;;;6.00;2.57;;;7.40;98.00;;;;;;5033391;28;20585;-66
2024/02/20 06:40:02;;;;;;;4.60;2.47;;;7.40;98.00;;;;;;5033488;28;20818;-67
2024/02/20 06:42:29;;;;;;;5.80;2.30;;;7.40;98.00;;;;;;5033470;28;20947;-66
2024/02/20 06:44:58;;;;;;;9.97;2.50;;;7.40;98.00;;;;;;5033611;28;20500;-66
2024/02/20 06:47:25;;;;;;;12.10;2.83;;;7.40;98.00;;;;;;5033565;28;20479;-66
2024/02/20 06:49:52;;;;;;;7.50;2.30;;;7.30;98.00;;;;;;5033157;28;20463;-67
2024/02/20 06:52:20;;;;;;;5.37;2.40;;;7.30;98.00;;;;;;5032935;28;20543;-67
2024/02/20 06:54:47;;;;;;;10.43;2.40;;;7.40;98.00;;;;;;5032697;28;20456;-67
2024/02/20 06:57:14;;;;;;;8.80;2.40;;;7.40;98.00;;;;;;5015603;28;20482;-67
2024/02/20 06:59:41;;;;;;;10.83;2.40;;;7.50;98.00;;;;;;5033259;28;20458;-64
2024/02/20 07:02:09;;;;;;;6.80;2.30;;;7.60;98.00;;;;;;5032996;28;20457;-64
2024/02/20 07:04:40;;;;;;;5.53;2.40;;;7.70;98.00;;;;;;5033051;28;20508;-65
2024/02/20 07:07:07;;;;;;;6.10;2.20;;;7.80;98.00;;;;;;5032618;28;20458;-64
2024/02/20 07:09:35;;;;;;;5.20;2.13;;;8.00;98.00;;;;;;5033165;28;20980;-65
2024/02/20 07:12:03;;;;;;;7.03;3.30;;;8.10;98.00;;;;;;5033147;28;20457;-64
2024/02/20 07:14:30;;;;;;;8.03;3.27;;;8.10;98.00;;;;;;5032929;28;20819;-64
2024/02/20 07:16:57;;;;;;;6.10;2.43;;;8.20;98.00;;;;;;5021773;28;20475;-63
2024/02/20 07:19:26;;;;;;;6.90;2.50;;;8.20;98.00;;;;;;5013188;28;20458;-64
2024/02/20 07:21:53;;;;;;;5.03;2.50;;;8.10;98.00;;;;;;5013189;28;20463;-63
2024/02/20 07:24:20;;;;;;;8.67;2.40;;;8.10;98.00;;;;;;5013128;28;20475;-64
2024/02/20 07:26:47;;;;;;;6.10;2.23;;;8.10;98.00;;;;;;5013002;28;20454;-65
2024/02/20 07:29:18;;;;;;;6.80;2.60;;;8.10;98.00;;;;;;5012724;28;20495;-64
2024/02/20 07:31:45;;;;;;;3.80;2.03;;;8.00;98.00;;;;;;5012077;28;20575;-63
2024/02/20 07:34:13;;;;;;;10.60;2.67;;;7.90;98.00;;;;;;5012676;28;20626;-65
2024/02/20 07:36:43;;;;;;;7.43;2.40;;;8.00;98.00;;;;;;5012809;28;20460;-64
2024/02/20 07:39:12;;;;;;;7.13;2.70;;;8.10;98.00;;;;;;5012588;28;20477;-65
2024/02/20 07:41:40;;;;;;;10.53;2.70;;;8.20;98.00;;;;;;5012002;28;20483;-64
2024/02/20 07:44:07;;;;;;;4.57;2.30;;;8.30;98.00;;;;;;5012573;28;20891;-64
2024/02/20 07:46:35;;;;;;;4.50;2.17;;;8.30;98.00;;;;;;5012946;28;20458;-64
2024/02/20 07:49:02;;;;;;;9.00;2.90;;;8.30;98.00;;;;;;5012553;28;20453;-64
2024/02/20 07:51:31;;;;;;;8.20;2.70;;;8.30;98.00;;;;;;5011936;28;20471;-65
2024/02/20 07:53:59;;;;;;;5.93;2.33;;;8.30;98.00;;;;;;5012353;28;20519;-64
2024/02/20 07:56:27;;;;;;;5.87;2.57;;;8.30;98.00;;;;;;5012407;28;20459;-64
2024/02/20 07:58:54;;;;;;;8.00;2.57;;;8.50;98.00;;;;;;5012307;28;20482;-64
2024/02/20 08:01:22;;;;;;;6.57;2.60;;;8.60;98.00;;;;;;5012498;28;20458;-64
2024/02/20 08:03:52;;;;;;;6.93;2.60;;;8.70;98.00;;;;;;5011965;28;20463;-64
2024/02/20 08:06:20;;;;;;;5.37;2.43;;;8.90;98.00;;;;;;5012091;28;20456;-63
2024/02/20 08:08:48;;;;;;;7.20;2.70;;;8.90;98.00;;;;;;5012242;28;20446;-64
2024/02/20 08:11:16;;;;;;;4.17;2.50;;;9.00;98.00;;;;;;5011283;28;20461;-64
2024/02/20 08:13:46;;;;;;;5.27;2.43;;;9.10;98.00;;;;;;5011603;28;20561;-64
2024/02/20 08:16:13;;;;;;;9.30;3.07;;;9.10;98.00;;;;;;5012122;28;20466;-64
2024/02/20 08:18:41;;;;;;;7.37;2.73;;;9.20;98.00;;;;;;5016787;28;20494;-64
2024/02/20 08:21:14;;;;;;;8.63;2.70;;;9.10;98.00;;;;;;5031805;28;20607;-64
2024/02/20 08:23:42;;;;;;;8.10;2.90;;;9.00;98.00;;;;;;5014559;28;20469;-64
2024/02/20 08:26:10;;;;;;;7.30;2.57;;;8.90;98.00;;;;;;5031710;28;20488;-64
2024/02/20 08:28:40;;;;;;;12.97;2.80;;;8.80;98.00;;;;;;5031427;28;20454;-64
2024/02/20 08:31:10;;;;;;;10.13;2.97;;;8.80;98.00;;;;;;5031973;28;20500;-65
2024/02/20 08:33:37;;;;;;;6.23;2.57;;;8.70;98.00;;;;;;5014259;28;20450;-64
2024/02/20 08:36:05;;;;;;;9.20;3.07;;;8.70;98.00;;;;;;5031776;28;20470;-64
2024/02/20 08:38:32;;;;;;;8.77;2.80;;;8.80;98.00;;;;;;5028691;28;20524;-64
2024/02/20 08:41:06;;;;;;;8.20;3.00;;;8.80;98.00;;;;;;5010801;28;20448;-65
2024/02/20 08:43:34;;;;;;;11.43;2.93;;;8.80;98.00;;;;;;4992197;28;20463;-64
2024/02/20 08:46:03;;;;;;;8.20;3.37;;;8.70;98.00;;;;;;4992356;28;20460;-64
2024/02/20 08:48:30;;;;;;;7.43;3.00;;;8.60;98.00;;;;;;4992236;28;20458;-65
2024/02/20 08:50:57;;;;;;;6.60;2.60;;;8.60;98.00;;;;;;4992221;28;20518;-64
2024/02/20 08:53:24;;;;;;;8.80;2.50;;;8.80;98.00;;;;;;4992275;28;20494;-63
2024/02/20 08:55:52;;;;;;;6.73;2.57;;;8.90;98.00;;;;;;4992488;28;20937;-64
2024/02/20 08:58:20;;;;;;;12.73;3.47;;;9.10;98.00;;;;;;4992344;28;20566;-64
2024/02/20 09:00:47;;;;;;;7.10;2.50;;;9.20;98.00;;;;;;4992453;28;20460;-64
2024/02/20 09:03:16;;;;;;;7.47;2.60;;;9.20;98.00;;;;;;4992408;28;20459;-64
2024/02/20 09:05:43;;;;;;;7.83;2.60;;;9.20;98.00;;;;;;4992480;28;20461;-64
2024/02/20 09:08:10;;;;;;;8.50;3.00;;;9.20;98.00;;;;;;4975117;28;20462;-64
2024/02/20 09:10:38;;;;;;;5.07;2.53;;;9.30;98.00;;;;;;4992083;28;20513;-65
2024/02/20 09:13:06;;;;;;;7.90;3.07;;;9.50;98.00;;;;;;4974739;28;20538;-64
2024/02/20 09:15:35;;;;;;;8.20;2.60;;;9.60;98.00;;;;;;4991610;28;20454;-64
2024/02/20 09:18:03;;;;;;;5.50;2.47;;;9.70;98.00;;;;;;4994669;28;21240;-64
2024/02/20 09:20:32;;;;;;;11.83;3.03;;;9.80;98.00;;;;;;4978425;28;20456;-64
2024/02/20 09:22:59;;;;;;;6.33;3.10;;;9.80;98.00;;;;;;4993848;28;20459;-65
2024/02/20 09:25:27;;;;;;;11.20;2.90;;;9.70;98.00;;;;;;4995343;28;20849;-64
2024/02/20 09:27:54;;;;;;;3.40;2.10;;;9.80;98.00;;;;;;4995213;28;20507;-71
2024/02/20 09:30:21;;;;;;;11.40;2.70;;;9.90;98.00;;;;;;4995441;28;20948;-70
2024/02/20 09:32:48;;;;;;;8.30;2.43;;;9.90;98.00;;;;;;4995464;28;20479;-71
2024/02/20 09:35:15;;;;;;;12.50;2.83;;;10.10;98.00;;;;;;4995217;28;20451;-65
2024/02/20 09:37:43;;;;;;;8.20;3.17;;;10.00;98.00;;;;;;4995179;28;20483;-64
2024/02/20 09:40:16;;;;;;;9.37;2.93;;;10.10;98.00;;;;;;4995250;28;20490;-64
2024/02/20 09:42:48;;;;;;;6.47;2.80;;;10.00;98.00;;;;;;4995116;28;20468;-64
2024/02/20 09:45:19;;;;;;;8.83;3.00;;;10.00;98.00;;;;;;4995118;28;20459;-65
2024/02/20 09:47:48;;;;;;;8.87;2.83;;;9.80;98.00;;;;;;4995221;28;20460;-64
2024/02/20 09:50:17;;;;;;;12.70;3.77;;;9.80;98.00;;;;;;4994845;28;20947;-64
2024/02/20 09:52:51;;;;;;;11.50;3.20;;;10.00;98.00;;;;;;4995087;28;20982;-64
2024/02/20 09:55:19;;;;;;;7.30;3.10;;;10.20;98.00;;;;;;4994980;28;21012;-64
2024/02/20 09:57:49;;;;;;;5.20;2.60;;;10.20;98.00;;;;;;4994724;28;20974;-64
2024/02/20 10:00:17;;;;;;;4.20;2.50;;;10.30;98.00;;;;;;4994873;28;21012;-64
2024/02/20 10:02:45;;;;;;;10.93;3.20;;;10.40;98.00;;;;;;4994810;28;20460;-64
2024/02/20 10:05:15;;;;;;;11.83;3.40;;;10.60;98.00;;;;;;4994777;28;20503;-64
2024/02/20 10:07:43;;;;;;;9.10;2.73;;;10.90;98.00;;;;;;4994815;28;20804;-64
2024/02/20 10:10:15;;;;;;;7.53;3.20;;;10.70;98.00;;;;;;4994510;28;20457;-64
2024/02/20 10:12:44;;;;;;;8.73;3.83;;;10.70;98.00;;;;;;4994140;28;20814;-65
2024/02/20 10:15:14;;;;;;;10.90;3.30;;;10.70;98.00;;;;;;4994630;28;20483;-65
2024/02/20 10:17:42;;;;;;;13.37;2.90;;;10.50;98.00;;;;;;4977254;28;20537;-64
2024/02/20 10:20:11;;;;;;;9.53;3.10;;;10.30;98.00;;;;;;4977442;28;20463;-65
2024/02/20 10:22:40;;;;;;;5.50;2.80;;;10.50;98.00;;;;;;4994261;28;20524;-64
2024/02/20 10:25:11;;;;;;;7.70;3.47;;;10.40;98.00;;;;;;4994411;28;20496;-63
2024/02/20 10:27:40;;;;;;;7.93;3.00;;;10.10;98.00;;;;;;4994267;28;20467;-64
2024/02/20 10:30:08;;;;;;;8.57;3.07;;;10.10;98.00;;;;;;4994411;28;20603;-64
2024/02/20 10:32:37;;;;;;;7.93;3.40;;;10.10;98.00;;;;;;4994285;28;20497;-64
2024/02/20 10:35:11;;;;;;;13.60;3.23;;;10.10;98.00;;;;;;4994292;28;20499;-65
2024/02/20 10:37:39;;;;;;;8.70;2.90;;;10.40;98.00;;;;;;4994136;28;20459;-64
2024/02/20 10:40:07;;;;;;;9.60;3.00;;;10.60;98.00;;;;;;4976501;28;20460;-67
2024/02/20 10:42:38;;;;;;;10.10;3.43;;;10.90;98.00;;;;;;4994351;28;20463;-64
2024/02/20 10:45:09;;;;;;;7.40;3.20;;;11.20;98.00;;;;;;4993592;28;20460;-65
2024/02/20 10:47:40;;;;;;;11.37;3.20;;;11.20;98.00;;;;;;4993782;28;20480;-65
2024/02/20 10:50:09;;;;;;;7.67;2.87;;;11.10;98.00;;;;;;4993383;28;20464;-64
2024/02/20 10:52:36;;;;;;;12.30;3.37;;;11.20;98.00;;;;;;4994381;28;20463;-64
2024/02/20 10:55:07;;;;;;;11.40;2.70;;;11.20;98.00;;;;;;4994017;28;20480;-65
2024/02/20 10:57:35;;;;;;;8.37;3.30;;;11.30;98.00;;;;;;5013544;28;20839;-64
2024/02/20 11:00:07;;;;;;;8.57;2.70;;;11.20;98.00;;;;;;5032846;28;20590;-64
2024/02/20 11:02:38;;;;;;;5.60;2.77;;;11.30;98.00;;;;;;5032449;28;20493;-65
2024/02/20 11:05:06;;;;;;;7.20;2.70;;;11.40;98.00;;;;;;5011070;28;20465;-64
2024/02/20 11:07:34;;;;;;;4.50;2.33;;;11.40;98.00;;;;;;5017274;28;20462;-64
2024/02/20 11:10:11;;;;;;;6.70;2.80;;;11.30;98.00;;;;;;5032522;28;20468;-66
2024/02/20 11:12:38;;;;;;;12.80;3.20;;;11.30;98.00;;;;;;5019043;28;21015;-65
2024/02/20 11:15:07;;;;;;;11.17;2.87;;;11.40;98.00;;;;;;4995580;28;20463;-64
2024/02/20 11:17:36;;;;;;;6.07;2.70;;;11.50;98.00;;;;;;5030075;28;20452;-64
2024/02/20 11:20:08;;;;;;;7.10;2.57;;;11.40;98.00;;;;;;5020722;28;20529;-64
2024/02/20 11:22:36;;;;;;;6.23;2.67;;;11.40;98.00;;;;;;5017225;28;20455;-64
2024/02/20 11:25:08;;;;;;;6.43;2.93;;;11.30;98.00;;;;;;5010772;28;20487;-65
2024/02/20 11:27:40;;;;;;;13.67;2.80;;;11.20;98.00;;;;;;5012741;28;20538;-65
2024/02/20 11:30:13;;;;;;;6.23;2.77;;;11.40;98.00;;;;;;5012407;28;20452;-64
2024/02/20 11:32:44;;;;;;;6.53;2.00;;;11.40;98.00;;;;;;5012483;28;20491;-64
2024/02/20 11:35:26;;;;;;;7.30;3.00;;;11.80;98.00;;;;;;5011967;28;20462;-64
2024/02/20 11:37:55;;;;;;;6.20;2.50;;;12.40;98.00;;;;;;5012439;28;20481;-64
2024/02/20 11:40:23;;;;;;;6.43;2.63;;;12.70;98.00;;;;;;5011959;28;20453;-64
2024/02/20 11:42:51;;;;;;;7.90;2.27;;;12.80;98.00;;;;;;5012470;28;20449;-64
2024/02/20 11:45:19;;;;;;;6.80;2.77;;;12.70;98.00;;;;;;5012396;28;20844;-64
2024/02/20 11:48:04;;;;;;;8.07;2.73;;;12.60;98.00;;;;;;5012572;28;20879;-64
2024/02/20 11:50:32;;;;;;;8.43;2.77;;;12.40;98.00;;;;;;5012167;28;20467;-64
2024/02/20 11:53:00;;;;;;;4.60;2.53;;;12.20;98.00;;;;;;5012556;28;20466;-64
2024/02/20 11:55:28;;;;;;;5.17;2.50;;;12.00;98.00;;;;;;5012498;28;20455;-64
2024/02/20 11:57:55;;;;;;;9.07;3.00;;;11.90;98.00;;;;;;5012533;28;20948;-64
2024/02/20 12:00:24;;;;;;;6.50;2.57;;;11.80;98.00;;;;;;5012180;28;20498;-64
2024/02/20 12:02:54;;;;;;;15.37;2.33;;;11.70;98.00;;;;;;5012262;28;20447;-63
2024/02/20 12:05:25;;;;;;;5.60;2.43;;;11.70;98.00;;;;;;5011988;28;20455;-63
2024/02/20 12:07:52;;;;;;;6.40;2.23;;;11.70;98.00;;;;;;5011943;28;20494;-65
2024/02/20 12:10:20;;;;;;;10.13;2.70;;;11.70;98.00;;;;;;5012089;28;20455;-64
2024/02/20 12:12:48;;;;;;;4.53;2.27;;;11.70;98.00;;;;;;4994695;28;20859;-64
2024/02/20 12:15:15;;;;;;;7.10;2.40;;;11.60;98.00;;;;;;4994643;28;20456;-64
2024/02/20 12:17:45;;;;;;;8.43;2.73;;;11.60;98.00;;;;;;5011941;28;20451;-64
2024/02/20 12:20:14;;;;;;;6.80;2.30;;;11.60;98.00;;;;;;4994529;28;20834;-64
2024/02/20 12:22:42;;;;;;;8.47;2.77;;;11.60;98.00;;;;;;5012260;28;20811;-64
2024/02/20 12:25:11;;;;;;;6.77;2.60;;;11.50;98.00;;;;;;5011892;28;20462;-64
2024/02/20 12:27:47;;;;;;;7.77;2.00;;;11.70;98.00;;;;;;5012011;28;20459;-64
2024/02/20 12:30:14;;;;;;;7.00;2.20;;;12.20;98.00;;;;;;5011986;28;20453;-65
2024/02/20 12:32:42;;;;;;;4.60;2.33;;;12.30;98.00;;;;;;4994849;28;20553;-64
2024/02/20 12:35:09;;;;;;;9.10;2.33;;;12.10;98.00;;;;;;4994493;28;20456;-64
2024/02/20 12:37:38;;;;;;;7.10;2.50;;;11.80;98.00;;;;;;5011901;28;20468;-64
2024/02/20 12:40:08;;;;;;;6.13;2.17;;;11.70;98.00;;;;;;5011941;28;20521;-65
2024/02/20 12:42:36;;;;;;;7.97;2.57;;;11.50;98.00;;;;;;5012546;28;20453;-64
2024/02/20 12:45:04;;;;;;;5.80;2.30;;;11.30;98.00;;;;;;5009920;28;20993;-64
2024/02/20 12:47:31;;;;;;;8.10;2.90;;;11.10;98.00;;;;;;5009617;28;20589;-64
2024/02/20 12:49:58;;;;;;;6.30;2.37;;;11.00;98.00;;;;;;5009989;28;20548;-64
2024/02/20 12:52:26;;;;;;;6.17;2.43;;;11.30;98.00;;;;;;5013978;28;20533;-64
2024/02/20 12:54:56;;;;;;;7.40;2.83;;;11.30;98.00;;;;;;5030358;28;20481;-65
2024/02/20 12:57:24;;;;;;;6.67;2.57;;;11.30;98.00;;;;;;5017869;28;20531;-64